sensor_id;sensor_type;location;lat;lon;timestamp;P1;durP1;ratioP1;P2;durP2;ratioP2
7330;SDS011;3706;49.198;7.064;2023-07-13T00:00:35;2.80;;;2.30;;
7330;SDS011;3706;49.198;7.064;2023-07-13T00:03:02;2.27;;;2.07;;
7330;SDS011;3706;49.198;7.064;2023-07-13T00:05:31;4.27;;;2.20;;
7330;SDS011;3706;49.198;7.064;2023-07-13T00:07:58;3.97;;;2.03;;
7330;SDS011;3706;49.198;7.064;2023-07-13T00:10:25;3.00;;;2.50;;
7330;SDS011;3706;49.198;7.064;2023-07-13T00:12:52;4.03;;;2.30;;
7330;SDS011;3706;49.198;7.064;2023-07-13T00:15:21;3.67;;;2.47;;
7330;SDS011;3706;49.198;7.064;2023-07-13T00:17:50;3.27;;;2.10;;
7330;SDS011;3706;49.198;7.064;2023-07-13T00:20:17;5.33;;;2.43;;
7330;SDS011;3706;49.198;7.064;2023-07-13T00:22:49;5.47;;;2.60;;
7330;SDS011;3706;49.198;7.064;2023-07-13T00:25:17;3.20;;;2.53;;
7330;SDS011;3706;49.198;7.064;2023-07-13T00:27:44;4.20;;;2.40;;
7330;SDS011;3706;49.198;7.064;2023-07-13T00:30:13;6.47;;;2.80;;
7330;SDS011;3706;49.198;7.064;2023-07-13T00:32:40;4.07;;;2.40;;
7330;SDS011;3706;49.198;7.064;2023-07-13T00:35:08;4.23;;;2.83;;
7330;SDS011;3706;49.198;7.064;2023-07-13T00:37:35;6.37;;;2.80;;
7330;SDS011;3706;49.198;7.064;2023-07-13T00:40:04;3.37;;;2.40;;
7330;SDS011;3706;49.198;7.064;2023-07-13T00:42:33;7.40;;;2.60;;
7330;SDS011;3706;49.198;7.064;2023-07-13T00:45:00;3.33;;;2.30;;
7330;SDS011;3706;49.198;7.064;2023-07-13T00:47:29;3.83;;;2.47;;
7330;SDS011;3706;49.198;7.064;2023-07-13T00:49:56;4.87;;;2.50;;
7330;SDS011;3706;49.198;7.064;2023-07-13T00:52:23;5.23;;;2.70;;
7330;SDS011;3706;49.198;7.064;2023-07-13T00:54:50;5.20;;;2.70;;
7330;SDS011;3706;49.198;7.064;2023-07-13T00:57:18;5.73;;;2.70;;
7330;SDS011;3706;49.198;7.064;2023-07-13T00:59:47;4.63;;;2.77;;
7330;SDS011;3706;49.198;7.064;2023-07-13T01:02:16;3.83;;;2.50;;
7330;SDS011;3706;49.198;7.064;2023-07-13T01:04:43;6.17;;;2.73;;
7330;SDS011;3706;49.198;7.064;2023-07-13T01:07:10;3.30;;;2.40;;
7330;SDS011;3706;49.198;7.064;2023-07-13T01:09:38;4.03;;;2.77;;
7330;SDS011;3706;49.198;7.064;2023-07-13T01:12:06;4.57;;;2.70;;
7330;SDS011;3706;49.198;7.064;2023-07-13T01:14:35;5.33;;;2.40;;
7330;SDS011;3706;49.198;7.064;2023-07-13T01:17:02;6.63;;;2.53;;
7330;SDS011;3706;49.198;7.064;2023-07-13T01:19:32;5.67;;;2.60;;
7330;SDS011;3706;49.198;7.064;2023-07-13T01:22:04;3.93;;;2.63;;
7330;SDS011;3706;49.198;7.064;2023-07-13T01:24:33;3.00;;;2.30;;
7330;SDS011;3706;49.198;7.064;2023-07-13T01:27:01;5.50;;;3.03;;
7330;SDS011;3706;49.198;7.064;2023-07-13T01:29:28;2.57;;;2.30;;
7330;SDS011;3706;49.198;7.064;2023-07-13T01:31:56;4.57;;;2.70;;
7330;SDS011;3706;49.198;7.064;2023-07-13T01:34:25;5.70;;;2.80;;
7330;SDS011;3706;49.198;7.064;2023-07-13T01:36:52;5.40;;;2.97;;
7330;SDS011;3706;49.198;7.064;2023-07-13T01:39:21;5.87;;;3.00;;
7330;SDS011;3706;49.198;7.064;2023-07-13T01:41:48;3.97;;;2.60;;
7330;SDS011;3706;49.198;7.064;2023-07-13T01:44:15;3.30;;;2.20;;
7330;SDS011;3706;49.198;7.064;2023-07-13T01:46:42;4.07;;;2.60;;
7330;SDS011;3706;49.198;7.064;2023-07-13T01:49:09;6.83;;;2.80;;
7330;SDS011;3706;49.198;7.064;2023-07-13T01:51:36;3.43;;;2.60;;
7330;SDS011;3706;49.198;7.064;2023-07-13T01:54:03;2.30;;;2.07;;
7330;SDS011;3706;49.198;7.064;2023-07-13T01:56:31;6.67;;;3.17;;
7330;SDS011;3706;49.198;7.064;2023-07-13T01:58:58;3.87;;;2.40;;
7330;SDS011;3706;49.198;7.064;2023-07-13T02:01:25;3.53;;;2.50;;
7330;SDS011;3706;49.198;7.064;2023-07-13T02:03:52;4.50;;;3.10;;
7330;SDS011;3706;49.198;7.064;2023-07-13T02:06:19;4.63;;;2.77;;
7330;SDS011;3706;49.198;7.064;2023-07-13T02:08:45;3.90;;;2.63;;
7330;SDS011;3706;49.198;7.064;2023-07-13T02:11:12;3.77;;;2.27;;
7330;SDS011;3706;49.198;7.064;2023-07-13T02:13:41;3.90;;;2.40;;
7330;SDS011;3706;49.198;7.064;2023-07-13T02:16:08;3.03;;;2.60;;
7330;SDS011;3706;49.198;7.064;2023-07-13T02:18:34;5.77;;;2.40;;
7330;SDS011;3706;49.198;7.064;2023-07-13T02:21:02;5.87;;;2.60;;
7330;SDS011;3706;49.198;7.064;2023-07-13T02:23:29;3.37;;;2.60;;
7330;SDS011;3706;49.198;7.064;2023-07-13T02:25:56;3.83;;;2.53;;
7330;SDS011;3706;49.198;7.064;2023-07-13T02:28:24;5.60;;;2.53;;
7330;SDS011;3706;49.198;7.064;2023-07-13T02:30:52;5.60;;;2.87;;
7330;SDS011;3706;49.198;7.064;2023-07-13T02:33:19;7.07;;;2.77;;
7330;SDS011;3706;49.198;7.064;2023-07-13T02:35:46;4.03;;;2.63;;
7330;SDS011;3706;49.198;7.064;2023-07-13T02:38:13;4.93;;;3.23;;
7330;SDS011;3706;49.198;7.064;2023-07-13T02:40:40;6.60;;;2.70;;
7330;SDS011;3706;49.198;7.064;2023-07-13T02:43:07;5.37;;;2.93;;
7330;SDS011;3706;49.198;7.064;2023-07-13T02:45:33;4.17;;;2.90;;
7330;SDS011;3706;49.198;7.064;2023-07-13T02:48:02;4.60;;;2.70;;
7330;SDS011;3706;49.198;7.064;2023-07-13T02:50:29;3.57;;;2.60;;
7330;SDS011;3706;49.198;7.064;2023-07-13T02:52:56;3.30;;;2.63;;
7330;SDS011;3706;49.198;7.064;2023-07-13T02:55:23;7.03;;;2.63;;
7330;SDS011;3706;49.198;7.064;2023-07-13T02:57:50;3.73;;;2.53;;
7330;SDS011;3706;49.198;7.064;2023-07-13T03:00:17;4.67;;;2.60;;
7330;SDS011;3706;49.198;7.064;2023-07-13T03:02:44;6.40;;;2.50;;
7330;SDS011;3706;49.198;7.064;2023-07-13T03:05:12;2.30;;;2.10;;
7330;SDS011;3706;49.198;7.064;2023-07-13T03:07:40;3.70;;;2.93;;
7330;SDS011;3706;49.198;7.064;2023-07-13T03:10:07;4.63;;;2.43;;
7330;SDS011;3706;49.198;7.064;2023-07-13T03:12:35;2.43;;;2.20;;
7330;SDS011;3706;49.198;7.064;2023-07-13T03:15:02;4.70;;;2.67;;
7330;SDS011;3706;49.198;7.064;2023-07-13T03:17:29;4.30;;;2.80;;
7330;SDS011;3706;49.198;7.064;2023-07-13T03:19:56;2.97;;;2.30;;
7330;SDS011;3706;49.198;7.064;2023-07-13T03:22:25;3.40;;;2.63;;
7330;SDS011;3706;49.198;7.064;2023-07-13T03:24:51;3.77;;;2.60;;
7330;SDS011;3706;49.198;7.064;2023-07-13T03:27:18;3.07;;;2.50;;
7330;SDS011;3706;49.198;7.064;2023-07-13T03:29:45;3.93;;;2.53;;
7330;SDS011;3706;49.198;7.064;2023-07-13T03:32:12;5.60;;;2.90;;
7330;SDS011;3706;49.198;7.064;2023-07-13T03:34:39;5.43;;;2.77;;
7330;SDS011;3706;49.198;7.064;2023-07-13T03:37:06;3.63;;;2.60;;
7330;SDS011;3706;49.198;7.064;2023-07-13T03:39:34;3.10;;;2.83;;
7330;SDS011;3706;49.198;7.064;2023-07-13T03:42:01;4.63;;;2.40;;
7330;SDS011;3706;49.198;7.064;2023-07-13T03:44:28;5.60;;;2.40;;
7330;SDS011;3706;49.198;7.064;2023-07-13T03:46:55;3.87;;;2.67;;
7330;SDS011;3706;49.198;7.064;2023-07-13T03:49:22;4.17;;;2.90;;
7330;SDS011;3706;49.198;7.064;2023-07-13T03:51:49;3.37;;;2.90;;
7330;SDS011;3706;49.198;7.064;2023-07-13T03:54:16;4.30;;;3.10;;
7330;SDS011;3706;49.198;7.064;2023-07-13T03:56:44;6.17;;;2.30;;
7330;SDS011;3706;49.198;7.064;2023-07-13T03:59:11;4.87;;;2.93;;
7330;SDS011;3706;49.198;7.064;2023-07-13T04:01:38;4.30;;;3.00;;
7330;SDS011;3706;49.198;7.064;2023-07-13T04:04:05;4.73;;;2.80;;
7330;SDS011;3706;49.198;7.064;2023-07-13T04:06:32;6.20;;;2.80;;
7330;SDS011;3706;49.198;7.064;2023-07-13T04:09:01;4.60;;;2.63;;
7330;SDS011;3706;49.198;7.064;2023-07-13T04:11:31;7.87;;;2.83;;
7330;SDS011;3706;49.198;7.064;2023-07-13T04:13:59;3.00;;;2.63;;
7330;SDS011;3706;49.198;7.064;2023-07-13T04:16:27;4.77;;;2.80;;
7330;SDS011;3706;49.198;7.064;2023-07-13T04:18:54;5.93;;;3.00;;
7330;SDS011;3706;49.198;7.064;2023-07-13T04:21:24;4.63;;;3.07;;
7330;SDS011;3706;49.198;7.064;2023-07-13T04:23:52;5.30;;;2.57;;
7330;SDS011;3706;49.198;7.064;2023-07-13T04:26:19;6.33;;;2.73;;
7330;SDS011;3706;49.198;7.064;2023-07-13T04:28:48;4.93;;;2.97;;
7330;SDS011;3706;49.198;7.064;2023-07-13T04:31:16;3.90;;;2.97;;
7330;SDS011;3706;49.198;7.064;2023-07-13T04:33:44;4.40;;;2.60;;
7330;SDS011;3706;49.198;7.064;2023-07-13T04:36:11;8.00;;;2.57;;
7330;SDS011;3706;49.198;7.064;2023-07-13T04:38:38;6.10;;;2.60;;
7330;SDS011;3706;49.198;7.064;2023-07-13T04:41:05;5.00;;;2.67;;
7330;SDS011;3706;49.198;7.064;2023-07-13T04:43:33;3.03;;;2.27;;
7330;SDS011;3706;49.198;7.064;2023-07-13T04:46:02;5.00;;;2.60;;
7330;SDS011;3706;49.198;7.064;2023-07-13T04:48:32;3.27;;;2.60;;
7330;SDS011;3706;49.198;7.064;2023-07-13T04:50:59;2.57;;;2.27;;
7330;SDS011;3706;49.198;7.064;2023-07-13T04:53:27;3.27;;;2.70;;
7330;SDS011;3706;49.198;7.064;2023-07-13T04:55:54;4.53;;;2.60;;
7330;SDS011;3706;49.198;7.064;2023-07-13T04:58:22;3.33;;;2.40;;
7330;SDS011;3706;49.198;7.064;2023-07-13T05:00:51;5.63;;;2.30;;
7330;SDS011;3706;49.198;7.064;2023-07-13T05:03:18;5.10;;;2.73;;
7330;SDS011;3706;49.198;7.064;2023-07-13T05:05:55;5.20;;;2.50;;
7330;SDS011;3706;49.198;7.064;2023-07-13T05:08:23;5.37;;;2.50;;
7330;SDS011;3706;49.198;7.064;2023-07-13T05:10:50;2.87;;;2.03;;
7330;SDS011;3706;49.198;7.064;2023-07-13T05:13:17;4.80;;;2.10;;
7330;SDS011;3706;49.198;7.064;2023-07-13T05:15:45;2.53;;;2.17;;
7330;SDS011;3706;49.198;7.064;2023-07-13T05:18:13;2.70;;;2.00;;
7330;SDS011;3706;49.198;7.064;2023-07-13T05:20:40;2.63;;;1.93;;
7330;SDS011;3706;49.198;7.064;2023-07-13T05:23:08;3.10;;;2.00;;
7330;SDS011;3706;49.198;7.064;2023-07-13T05:25:36;3.83;;;2.23;;
7330;SDS011;3706;49.198;7.064;2023-07-13T05:28:02;5.43;;;2.70;;
7330;SDS011;3706;49.198;7.064;2023-07-13T05:30:29;3.17;;;1.93;;
7330;SDS011;3706;49.198;7.064;2023-07-13T05:32:56;5.13;;;2.30;;
7330;SDS011;3706;49.198;7.064;2023-07-13T05:35:23;3.63;;;1.97;;
7330;SDS011;3706;49.198;7.064;2023-07-13T05:37:50;5.60;;;2.20;;
7330;SDS011;3706;49.198;7.064;2023-07-13T05:40:18;3.13;;;1.83;;
7330;SDS011;3706;49.198;7.064;2023-07-13T05:42:45;5.70;;;2.33;;
7330;SDS011;3706;49.198;7.064;2023-07-13T05:45:12;3.63;;;2.27;;
7330;SDS011;3706;49.198;7.064;2023-07-13T05:47:39;4.40;;;2.33;;
7330;SDS011;3706;49.198;7.064;2023-07-13T05:50:06;5.33;;;2.20;;
7330;SDS011;3706;49.198;7.064;2023-07-13T05:52:34;4.77;;;2.27;;
7330;SDS011;3706;49.198;7.064;2023-07-13T05:55:00;4.43;;;1.90;;
7330;SDS011;3706;49.198;7.064;2023-07-13T05:57:29;3.83;;;2.50;;
7330;SDS011;3706;49.198;7.064;2023-07-13T05:59:56;3.33;;;2.77;;
7330;SDS011;3706;49.198;7.064;2023-07-13T06:02:23;4.90;;;2.67;;
7330;SDS011;3706;49.198;7.064;2023-07-13T06:04:50;9.45;;;3.20;;
7330;SDS011;3706;49.198;7.064;2023-07-13T06:07:17;4.15;;;2.75;;
7330;SDS011;3706;49.198;7.064;2023-07-13T06:09:44;4.70;;;2.92;;
7330;SDS011;3706;49.198;7.064;2023-07-13T06:12:11;4.45;;;3.22;;
7330;SDS011;3706;49.198;7.064;2023-07-13T06:14:39;6.22;;;2.90;;
7330;SDS011;3706;49.198;7.064;2023-07-13T06:17:07;6.70;;;2.95;;
7330;SDS011;3706;49.198;7.064;2023-07-13T06:19:34;6.63;;;2.95;;
7330;SDS011;3706;49.198;7.064;2023-07-13T06:22:01;6.10;;;3.13;;
7330;SDS011;3706;49.198;7.064;2023-07-13T06:24:28;8.00;;;3.50;;
7330;SDS011;3706;49.198;7.064;2023-07-13T06:26:55;5.23;;;3.20;;
7330;SDS011;3706;49.198;7.064;2023-07-13T06:29:22;7.50;;;3.47;;
7330;SDS011;3706;49.198;7.064;2023-07-13T06:31:50;5.27;;;3.03;;
7330;SDS011;3706;49.198;7.064;2023-07-13T06:34:17;5.57;;;2.80;;
7330;SDS011;3706;49.198;7.064;2023-07-13T06:36:45;7.40;;;3.10;;
7330;SDS011;3706;49.198;7.064;2023-07-13T06:39:11;8.20;;;2.90;;
7330;SDS011;3706;49.198;7.064;2023-07-13T06:41:38;8.53;;;3.77;;
7330;SDS011;3706;49.198;7.064;2023-07-13T06:44:05;5.20;;;2.85;;
7330;SDS011;3706;49.198;7.064;2023-07-13T06:46:32;4.95;;;3.13;;
7330;SDS011;3706;49.198;7.064;2023-07-13T06:49:00;4.35;;;2.65;;
7330;SDS011;3706;49.198;7.064;2023-07-13T06:51:27;6.47;;;2.75;;
7330;SDS011;3706;49.198;7.064;2023-07-13T06:53:54;3.33;;;2.22;;
7330;SDS011;3706;49.198;7.064;2023-07-13T06:56:21;5.75;;;2.30;;
7330;SDS011;3706;49.198;7.064;2023-07-13T06:58:48;4.30;;;2.20;;
7330;SDS011;3706;49.198;7.064;2023-07-13T07:01:15;5.65;;;2.53;;
7330;SDS011;3706;49.198;7.064;2023-07-13T07:03:42;4.82;;;2.40;;
7330;SDS011;3706;49.198;7.064;2023-07-13T07:06:13;4.43;;;2.33;;
7330;SDS011;3706;49.198;7.064;2023-07-13T07:08:42;5.13;;;2.67;;
7330;SDS011;3706;49.198;7.064;2023-07-13T07:11:11;3.90;;;2.50;;
7330;SDS011;3706;49.198;7.064;2023-07-13T07:13:39;6.30;;;2.43;;
7330;SDS011;3706;49.198;7.064;2023-07-13T07:16:06;3.40;;;2.27;;
7330;SDS011;3706;49.198;7.064;2023-07-13T07:18:33;5.33;;;2.50;;
7330;SDS011;3706;49.198;7.064;2023-07-13T07:21:00;7.80;;;2.57;;
7330;SDS011;3706;49.198;7.064;2023-07-13T07:23:28;5.67;;;2.50;;
7330;SDS011;3706;49.198;7.064;2023-07-13T07:25:55;6.23;;;2.47;;
7330;SDS011;3706;49.198;7.064;2023-07-13T07:28:22;5.50;;;2.23;;
7330;SDS011;3706;49.198;7.064;2023-07-13T07:30:52;5.80;;;2.37;;
7330;SDS011;3706;49.198;7.064;2023-07-13T07:33:19;6.80;;;3.07;;
7330;SDS011;3706;49.198;7.064;2023-07-13T07:35:46;8.80;;;2.80;;
7330;SDS011;3706;49.198;7.064;2023-07-13T07:38:13;5.60;;;2.70;;
7330;SDS011;3706;49.198;7.064;2023-07-13T07:40:42;3.47;;;2.40;;
7330;SDS011;3706;49.198;7.064;2023-07-13T07:43:10;7.40;;;3.20;;
7330;SDS011;3706;49.198;7.064;2023-07-13T07:45:38;5.60;;;2.90;;
7330;SDS011;3706;49.198;7.064;2023-07-13T07:48:06;5.53;;;2.33;;
7330;SDS011;3706;49.198;7.064;2023-07-13T07:50:34;6.33;;;2.40;;
7330;SDS011;3706;49.198;7.064;2023-07-13T07:53:02;7.43;;;2.60;;
7330;SDS011;3706;49.198;7.064;2023-07-13T07:55:32;4.93;;;2.30;;
7330;SDS011;3706;49.198;7.064;2023-07-13T07:58:01;4.73;;;2.40;;
7330;SDS011;3706;49.198;7.064;2023-07-13T08:00:28;4.53;;;2.53;;
7330;SDS011;3706;49.198;7.064;2023-07-13T08:02:56;6.73;;;2.57;;
7330;SDS011;3706;49.198;7.064;2023-07-13T08:05:24;4.50;;;2.27;;
7330;SDS011;3706;49.198;7.064;2023-07-13T08:07:51;6.27;;;2.60;;
7330;SDS011;3706;49.198;7.064;2023-07-13T08:10:18;4.40;;;2.30;;
7330;SDS011;3706;49.198;7.064;2023-07-13T08:12:45;4.17;;;2.30;;
7330;SDS011;3706;49.198;7.064;2023-07-13T08:15:14;4.87;;;2.20;;
7330;SDS011;3706;49.198;7.064;2023-07-13T08:17:42;5.07;;;2.70;;
7330;SDS011;3706;49.198;7.064;2023-07-13T08:20:09;4.60;;;2.37;;
7330;SDS011;3706;49.198;7.064;2023-07-13T08:22:36;5.40;;;2.30;;
7330;SDS011;3706;49.198;7.064;2023-07-13T08:25:04;3.93;;;2.20;;
7330;SDS011;3706;49.198;7.064;2023-07-13T08:27:31;7.57;;;2.10;;
7330;SDS011;3706;49.198;7.064;2023-07-13T08:29:58;6.13;;;2.07;;
7330;SDS011;3706;49.198;7.064;2023-07-13T08:32:27;4.63;;;2.30;;
7330;SDS011;3706;49.198;7.064;2023-07-13T08:34:54;8.80;;;2.47;;
7330;SDS011;3706;49.198;7.064;2023-07-13T08:37:20;5.13;;;2.17;;
7330;SDS011;3706;49.198;7.064;2023-07-13T08:39:47;4.63;;;2.33;;
7330;SDS011;3706;49.198;7.064;2023-07-13T08:42:16;5.15;;;2.10;;
7330;SDS011;3706;49.198;7.064;2023-07-13T08:44:56;5.80;;;2.42;;
7330;SDS011;3706;49.198;7.064;2023-07-13T08:47:35;2.70;;;1.90;;
7330;SDS011;3706;49.198;7.064;2023-07-13T08:50:08;5.55;;;2.15;;
7330;SDS011;3706;49.198;7.064;2023-07-13T08:52:39;5.68;;;2.20;;
7330;SDS011;3706;49.198;7.064;2023-07-13T08:55:11;3.85;;;1.73;;
7330;SDS011;3706;49.198;7.064;2023-07-13T08:57:39;4.85;;;2.30;;
7330;SDS011;3706;49.198;7.064;2023-07-13T09:00:09;2.22;;;1.70;;
7330;SDS011;3706;49.198;7.064;2023-07-13T09:02:42;5.53;;;2.15;;
7330;SDS011;3706;49.198;7.064;2023-07-13T09:05:14;4.60;;;2.33;;
7330;SDS011;3706;49.198;7.064;2023-07-13T09:07:50;3.95;;;1.88;;
7330;SDS011;3706;49.198;7.064;2023-07-13T09:10:29;4.72;;;2.03;;
7330;SDS011;3706;49.198;7.064;2023-07-13T09:13:06;4.22;;;2.00;;
7330;SDS011;3706;49.198;7.064;2023-07-13T09:15:44;3.15;;;1.77;;
7330;SDS011;3706;49.198;7.064;2023-07-13T09:18:16;2.83;;;1.38;;
7330;SDS011;3706;49.198;7.064;2023-07-13T09:20:49;5.10;;;2.03;;
7330;SDS011;3706;49.198;7.064;2023-07-13T09:23:21;2.75;;;1.88;;
7330;SDS011;3706;49.198;7.064;2023-07-13T09:25:50;2.75;;;1.67;;
7330;SDS011;3706;49.198;7.064;2023-07-13T09:28:22;3.97;;;1.67;;
7330;SDS011;3706;49.198;7.064;2023-07-13T09:30:51;2.72;;;1.83;;
7330;SDS011;3706;49.198;7.064;2023-07-13T09:33:27;3.80;;;1.90;;
7330;SDS011;3706;49.198;7.064;2023-07-13T09:35:55;3.17;;;1.70;;
7330;SDS011;3706;49.198;7.064;2023-07-13T09:38:24;2.95;;;1.80;;
7330;SDS011;3706;49.198;7.064;2023-07-13T09:41:01;3.90;;;1.65;;
7330;SDS011;3706;49.198;7.064;2023-07-13T09:43:43;2.63;;;1.80;;
7330;SDS011;3706;49.198;7.064;2023-07-13T09:46:27;3.83;;;1.88;;
7330;SDS011;3706;49.198;7.064;2023-07-13T09:48:56;2.65;;;1.70;;
7330;SDS011;3706;49.198;7.064;2023-07-13T09:51:23;4.90;;;2.20;;
7330;SDS011;3706;49.198;7.064;2023-07-13T09:53:50;2.95;;;1.50;;
7330;SDS011;3706;49.198;7.064;2023-07-13T09:56:20;3.13;;;1.60;;
7330;SDS011;3706;49.198;7.064;2023-07-13T09:58:48;3.80;;;2.10;;
7330;SDS011;3706;49.198;7.064;2023-07-13T10:01:15;4.45;;;1.90;;
7330;SDS011;3706;49.198;7.064;2023-07-13T10:03:58;3.72;;;1.60;;
7330;SDS011;3706;49.198;7.064;2023-07-13T10:06:25;6.43;;;1.77;;
7330;SDS011;3706;49.198;7.064;2023-07-13T10:08:54;4.35;;;2.03;;
7330;SDS011;3706;49.198;7.064;2023-07-13T10:11:23;2.58;;;1.75;;
7330;SDS011;3706;49.198;7.064;2023-07-13T10:13:55;3.70;;;1.88;;
7330;SDS011;3706;49.198;7.064;2023-07-13T10:16:25;3.17;;;1.70;;
7330;SDS011;3706;49.198;7.064;2023-07-13T10:19:00;3.75;;;2.00;;
7330;SDS011;3706;49.198;7.064;2023-07-13T10:21:32;5.57;;;1.90;;
7330;SDS011;3706;49.198;7.064;2023-07-13T10:24:05;5.10;;;1.90;;
7330;SDS011;3706;49.198;7.064;2023-07-13T10:26:52;3.05;;;1.83;;
7330;SDS011;3706;49.198;7.064;2023-07-13T10:29:23;4.38;;;2.00;;
7330;SDS011;3706;49.198;7.064;2023-07-13T10:31:53;5.10;;;1.67;;
7330;SDS011;3706;49.198;7.064;2023-07-13T10:34:23;2.88;;;1.50;;
7330;SDS011;3706;49.198;7.064;2023-07-13T10:36:51;3.20;;;1.70;;
7330;SDS011;3706;49.198;7.064;2023-07-13T10:39:20;3.35;;;1.73;;
7330;SDS011;3706;49.198;7.064;2023-07-13T10:41:50;2.77;;;1.80;;
7330;SDS011;3706;49.198;7.064;2023-07-13T10:44:21;5.80;;;2.00;;
7330;SDS011;3706;49.198;7.064;2023-07-13T10:46:51;2.93;;;1.70;;
7330;SDS011;3706;49.198;7.064;2023-07-13T10:49:20;2.23;;;1.60;;
7330;SDS011;3706;49.198;7.064;2023-07-13T10:51:49;2.00;;;1.53;;
7330;SDS011;3706;49.198;7.064;2023-07-13T10:54:18;3.73;;;1.73;;
7330;SDS011;3706;49.198;7.064;2023-07-13T10:56:49;2.40;;;1.60;;
7330;SDS011;3706;49.198;7.064;2023-07-13T10:59:20;2.73;;;1.37;;
7330;SDS011;3706;49.198;7.064;2023-07-13T11:01:54;2.80;;;1.83;;
7330;SDS011;3706;49.198;7.064;2023-07-13T11:04:24;4.23;;;1.73;;
7330;SDS011;3706;49.198;7.064;2023-07-13T11:06:56;1.83;;;1.60;;
7330;SDS011;3706;49.198;7.064;2023-07-13T11:09:32;5.20;;;1.80;;
7330;SDS011;3706;49.198;7.064;2023-07-13T11:12:02;2.88;;;1.25;;
7330;SDS011;3706;49.198;7.064;2023-07-13T11:14:35;3.45;;;1.65;;
7330;SDS011;3706;49.198;7.064;2023-07-13T11:20:30;3.45;;;1.25;;
7330;SDS011;3706;49.198;7.064;2023-07-13T11:23:16;4.93;;;1.77;;
7330;SDS011;3706;49.198;7.064;2023-07-13T11:25:55;3.50;;;1.90;;
7330;SDS011;3706;49.198;7.064;2023-07-13T11:28:23;3.17;;;1.55;;
7330;SDS011;3706;49.198;7.064;2023-07-13T11:31:12;5.32;;;1.45;;
7330;SDS011;3706;49.198;7.064;2023-07-13T11:36:38;6.35;;;1.70;;
7330;SDS011;3706;49.198;7.064;2023-07-13T11:39:17;3.25;;;1.70;;
7330;SDS011;3706;49.198;7.064;2023-07-13T11:41:51;2.95;;;1.60;;
7330;SDS011;3706;49.198;7.064;2023-07-13T11:44:22;3.22;;;1.55;;
7330;SDS011;3706;49.198;7.064;2023-07-13T11:46:52;3.72;;;1.67;;
7330;SDS011;3706;49.198;7.064;2023-07-13T11:49:21;3.10;;;1.42;;
7330;SDS011;3706;49.198;7.064;2023-07-13T11:51:49;5.85;;;1.70;;
7330;SDS011;3706;49.198;7.064;2023-07-13T11:54:23;2.47;;;1.42;;
7330;SDS011;3706;49.198;7.064;2023-07-13T11:56:55;4.53;;;1.60;;
7330;SDS011;3706;49.198;7.064;2023-07-13T11:59:25;3.13;;;1.50;;
7330;SDS011;3706;49.198;7.064;2023-07-13T12:01:53;3.80;;;1.48;;
7330;SDS011;3706;49.198;7.064;2023-07-13T12:04:22;2.90;;;1.60;;
7330;SDS011;3706;49.198;7.064;2023-07-13T12:06:54;3.00;;;1.63;;
7330;SDS011;3706;49.198;7.064;2023-07-13T12:09:25;3.45;;;1.67;;
7330;SDS011;3706;49.198;7.064;2023-07-13T12:11:55;3.80;;;1.90;;
7330;SDS011;3706;49.198;7.064;2023-07-13T12:14:23;2.67;;;1.60;;
7330;SDS011;3706;49.198;7.064;2023-07-13T12:16:51;3.03;;;1.70;;
7330;SDS011;3706;49.198;7.064;2023-07-13T12:19:20;4.28;;;1.60;;
7330;SDS011;3706;49.198;7.064;2023-07-13T12:21:48;2.78;;;1.25;;
7330;SDS011;3706;49.198;7.064;2023-07-13T12:24:17;3.30;;;1.50;;
7330;SDS011;3706;49.198;7.064;2023-07-13T12:26:52;1.73;;;1.50;;
7330;SDS011;3706;49.198;7.064;2023-07-13T12:29:20;2.80;;;1.50;;
7330;SDS011;3706;49.198;7.064;2023-07-13T12:31:48;2.97;;;1.50;;
7330;SDS011;3706;49.198;7.064;2023-07-13T12:34:18;3.00;;;1.60;;
7330;SDS011;3706;49.198;7.064;2023-07-13T12:36:47;4.43;;;1.70;;
7330;SDS011;3706;49.198;7.064;2023-07-13T12:39:17;2.57;;;1.40;;
7330;SDS011;3706;49.198;7.064;2023-07-13T12:41:46;3.23;;;1.40;;
7330;SDS011;3706;49.198;7.064;2023-07-13T12:44:16;2.00;;;1.57;;
7330;SDS011;3706;49.198;7.064;2023-07-13T12:46:56;2.27;;;1.40;;
7330;SDS011;3706;49.198;7.064;2023-07-13T12:49:26;4.73;;;1.73;;
7330;SDS011;3706;49.198;7.064;2023-07-13T12:51:58;3.70;;;1.83;;
7330;SDS011;3706;49.198;7.064;2023-07-13T12:54:26;3.87;;;1.53;;
7330;SDS011;3706;49.198;7.064;2023-07-13T12:56:54;2.77;;;1.50;;
7330;SDS011;3706;49.198;7.064;2023-07-13T12:59:27;2.23;;;1.53;;
7330;SDS011;3706;49.198;7.064;2023-07-13T13:01:58;4.17;;;1.97;;
7330;SDS011;3706;49.198;7.064;2023-07-13T13:04:25;6.40;;;1.60;;
7330;SDS011;3706;49.198;7.064;2023-07-13T13:07:00;3.07;;;1.50;;
7330;SDS011;3706;49.198;7.064;2023-07-13T13:09:28;3.07;;;1.80;;
7330;SDS011;3706;49.198;7.064;2023-07-13T13:11:55;4.07;;;1.60;;
7330;SDS011;3706;49.198;7.064;2023-07-13T13:14:22;2.33;;;1.30;;
7330;SDS011;3706;49.198;7.064;2023-07-13T13:16:50;3.07;;;1.60;;
7330;SDS011;3706;49.198;7.064;2023-07-13T13:19:20;3.27;;;1.60;;
7330;SDS011;3706;49.198;7.064;2023-07-13T13:21:49;4.40;;;1.87;;
7330;SDS011;3706;49.198;7.064;2023-07-13T13:24:18;4.13;;;1.77;;
7330;SDS011;3706;49.198;7.064;2023-07-13T13:26:47;4.70;;;1.90;;
7330;SDS011;3706;49.198;7.064;2023-07-13T13:29:15;3.10;;;1.30;;
7330;SDS011;3706;49.198;7.064;2023-07-13T13:31:43;3.40;;;1.77;;
7330;SDS011;3706;49.198;7.064;2023-07-13T13:34:12;4.27;;;1.60;;
7330;SDS011;3706;49.198;7.064;2023-07-13T13:36:41;3.23;;;1.53;;
7330;SDS011;3706;49.198;7.064;2023-07-13T13:39:16;4.80;;;1.77;;
7330;SDS011;3706;49.198;7.064;2023-07-13T13:41:46;4.00;;;1.97;;
7330;SDS011;3706;49.198;7.064;2023-07-13T13:44:14;4.83;;;1.60;;
7330;SDS011;3706;49.198;7.064;2023-07-13T13:46:43;3.03;;;1.53;;
7330;SDS011;3706;49.198;7.064;2023-07-13T13:49:14;4.80;;;1.70;;
7330;SDS011;3706;49.198;7.064;2023-07-13T13:51:43;2.13;;;1.50;;
7330;SDS011;3706;49.198;7.064;2023-07-13T13:54:12;3.50;;;1.70;;
7330;SDS011;3706;49.198;7.064;2023-07-13T13:56:41;4.30;;;1.70;;
7330;SDS011;3706;49.198;7.064;2023-07-13T13:59:09;3.57;;;1.70;;
7330;SDS011;3706;49.198;7.064;2023-07-13T14:01:36;3.03;;;1.80;;
7330;SDS011;3706;49.198;7.064;2023-07-13T14:04:04;3.83;;;1.50;;
7330;SDS011;3706;49.198;7.064;2023-07-13T14:06:34;2.70;;;1.60;;
7330;SDS011;3706;49.198;7.064;2023-07-13T14:09:02;6.33;;;2.00;;
7330;SDS011;3706;49.198;7.064;2023-07-13T14:11:29;3.60;;;1.67;;
7330;SDS011;3706;49.198;7.064;2023-07-13T14:13:58;3.50;;;1.50;;
7330;SDS011;3706;49.198;7.064;2023-07-13T14:16:29;3.67;;;1.90;;
7330;SDS011;3706;49.198;7.064;2023-07-13T14:18:58;5.43;;;1.57;;
7330;SDS011;3706;49.198;7.064;2023-07-13T14:21:26;3.43;;;1.30;;
7330;SDS011;3706;49.198;7.064;2023-07-13T14:23:56;3.13;;;1.50;;
7330;SDS011;3706;49.198;7.064;2023-07-13T14:26:23;5.87;;;1.57;;
7330;SDS011;3706;49.198;7.064;2023-07-13T14:28:53;4.27;;;1.70;;
7330;SDS011;3706;49.198;7.064;2023-07-13T14:31:23;3.97;;;1.77;;
7330;SDS011;3706;49.198;7.064;2023-07-13T14:33:51;3.23;;;1.90;;
7330;SDS011;3706;49.198;7.064;2023-07-13T14:36:23;4.43;;;1.40;;
7330;SDS011;3706;49.198;7.064;2023-07-13T14:38:55;5.57;;;1.83;;
7330;SDS011;3706;49.198;7.064;2023-07-13T14:41:23;3.83;;;1.83;;
7330;SDS011;3706;49.198;7.064;2023-07-13T14:43:50;2.70;;;1.47;;
7330;SDS011;3706;49.198;7.064;2023-07-13T14:46:26;3.87;;;1.80;;
7330;SDS011;3706;49.198;7.064;2023-07-13T14:48:59;2.93;;;1.50;;
7330;SDS011;3706;49.198;7.064;2023-07-13T14:51:28;3.33;;;1.60;;
7330;SDS011;3706;49.198;7.064;2023-07-13T14:53:57;2.83;;;1.73;;
7330;SDS011;3706;49.198;7.064;2023-07-13T14:56:27;6.17;;;1.80;;
7330;SDS011;3706;49.198;7.064;2023-07-13T14:58:54;1.73;;;1.23;;
7330;SDS011;3706;49.198;7.064;2023-07-13T15:01:20;2.07;;;1.50;;
7330;SDS011;3706;49.198;7.064;2023-07-13T15:03:51;2.23;;;1.70;;
7330;SDS011;3706;49.198;7.064;2023-07-13T15:06:18;2.83;;;1.70;;
7330;SDS011;3706;49.198;7.064;2023-07-13T15:08:46;2.27;;;1.40;;
7330;SDS011;3706;49.198;7.064;2023-07-13T15:11:14;6.63;;;3.50;;
7330;SDS011;3706;49.198;7.064;2023-07-13T15:13:42;3.30;;;1.33;;
7330;SDS011;3706;49.198;7.064;2023-07-13T15:16:14;2.70;;;1.60;;
7330;SDS011;3706;49.198;7.064;2023-07-13T15:18:43;2.57;;;1.60;;
7330;SDS011;3706;49.198;7.064;2023-07-13T15:21:11;5.20;;;1.90;;
7330;SDS011;3706;49.198;7.064;2023-07-13T15:23:42;5.00;;;2.00;;
7330;SDS011;3706;49.198;7.064;2023-07-13T15:26:11;3.30;;;1.80;;
7330;SDS011;3706;49.198;7.064;2023-07-13T15:28:40;2.73;;;1.50;;
7330;SDS011;3706;49.198;7.064;2023-07-13T15:31:19;4.63;;;1.60;;